Webcam

2017/05/27 19:20 EBBR 271920Z 33005KT 9999 FEW050CB 21/17 Q1017 NOSIG

Webcam image

--- Refresh now ---